sensor_id;sensor_type;location;lat;lon;timestamp;P1;durP1;ratioP1;P2;durP2;ratioP2
7181;SDS011;3632;42.724;23.298;2022-09-12T00:00:21;6.03;;;5.00;;
7181;SDS011;3632;42.724;23.298;2022-09-12T00:02:50;7.53;;;5.37;;
7181;SDS011;3632;42.724;23.298;2022-09-12T00:05:17;5.67;;;5.10;;
7181;SDS011;3632;42.724;23.298;2022-09-12T00:07:44;5.60;;;5.20;;
7181;SDS011;3632;42.724;23.298;2022-09-12T00:10:13;6.10;;;5.60;;
7181;SDS011;3632;42.724;23.298;2022-09-12T00:12:40;5.70;;;5.30;;
7181;SDS011;3632;42.724;23.298;2022-09-12T00:15:07;5.67;;;5.17;;
7181;SDS011;3632;42.724;23.298;2022-09-12T00:17:36;5.73;;;5.17;;
7181;SDS011;3632;42.724;23.298;2022-09-12T00:20:04;5.40;;;5.00;;
7181;SDS011;3632;42.724;23.298;2022-09-12T00:22:33;5.50;;;5.07;;
7181;SDS011;3632;42.724;23.298;2022-09-12T00:25:00;5.60;;;5.10;;
7181;SDS011;3632;42.724;23.298;2022-09-12T00:27:28;5.40;;;4.90;;
7181;SDS011;3632;42.724;23.298;2022-09-12T00:29:55;5.17;;;4.67;;
7181;SDS011;3632;42.724;23.298;2022-09-12T00:32:22;5.57;;;5.07;;
7181;SDS011;3632;42.724;23.298;2022-09-12T00:34:49;5.40;;;4.80;;
7181;SDS011;3632;42.724;23.298;2022-09-12T00:37:16;5.50;;;5.00;;
7181;SDS011;3632;42.724;23.298;2022-09-12T00:39:43;4.70;;;4.40;;
7181;SDS011;3632;42.724;23.298;2022-09-12T00:42:10;5.40;;;4.90;;
7181;SDS011;3632;42.724;23.298;2022-09-12T00:44:44;4.40;;;4.10;;
7181;SDS011;3632;42.724;23.298;2022-09-12T00:47:15;4.77;;;4.40;;
7181;SDS011;3632;42.724;23.298;2022-09-12T00:49:46;4.43;;;4.13;;
7181;SDS011;3632;42.724;23.298;2022-09-12T00:52:19;4.80;;;4.30;;
7181;SDS011;3632;42.724;23.298;2022-09-12T00:54:50;4.73;;;4.33;;
7181;SDS011;3632;42.724;23.298;2022-09-12T00:57:22;5.40;;;4.50;;
7181;SDS011;3632;42.724;23.298;2022-09-12T00:59:55;4.87;;;4.40;;
7181;SDS011;3632;42.724;23.298;2022-09-12T01:02:26;4.80;;;4.20;;
7181;SDS011;3632;42.724;23.298;2022-09-12T01:04:53;4.80;;;4.40;;
7181;SDS011;3632;42.724;23.298;2022-09-12T01:07:20;4.97;;;4.30;;
7181;SDS011;3632;42.724;23.298;2022-09-12T01:09:48;5.23;;;4.13;;
7181;SDS011;3632;42.724;23.298;2022-09-12T01:12:15;4.43;;;4.13;;
7181;SDS011;3632;42.724;23.298;2022-09-12T01:14:42;4.53;;;4.10;;
7181;SDS011;3632;42.724;23.298;2022-09-12T01:17:12;4.50;;;4.10;;
7181;SDS011;3632;42.724;23.298;2022-09-12T01:19:57;4.67;;;4.27;;
7181;SDS011;3632;42.724;23.298;2022-09-12T01:23:01;4.53;;;4.13;;
7181;SDS011;3632;42.724;23.298;2022-09-12T01:25:55;5.53;;;4.20;;
7181;SDS011;3632;42.724;23.298;2022-09-12T01:28:42;4.77;;;4.37;;
7181;SDS011;3632;42.724;23.298;2022-09-12T01:31:23;5.00;;;4.50;;
7181;SDS011;3632;42.724;23.298;2022-09-12T01:33:58;4.63;;;4.23;;
7181;SDS011;3632;42.724;23.298;2022-09-12T01:36:37;5.13;;;4.40;;
7181;SDS011;3632;42.724;23.298;2022-09-12T01:39:17;4.43;;;4.00;;
7181;SDS011;3632;42.724;23.298;2022-09-12T01:41:54;4.90;;;4.20;;
7181;SDS011;3632;42.724;23.298;2022-09-12T01:44:35;4.50;;;4.03;;
7181;SDS011;3632;42.724;23.298;2022-09-12T01:47:12;4.07;;;3.77;;
7181;SDS011;3632;42.724;23.298;2022-09-12T01:49:47;4.43;;;4.03;;
7181;SDS011;3632;42.724;23.298;2022-09-12T01:52:23;4.60;;;4.20;;
7181;SDS011;3632;42.724;23.298;2022-09-12T01:54:56;4.30;;;3.90;;
7181;SDS011;3632;42.724;23.298;2022-09-12T01:57:28;4.73;;;4.00;;
7181;SDS011;3632;42.724;23.298;2022-09-12T02:00:06;4.07;;;3.77;;
7181;SDS011;3632;42.724;23.298;2022-09-12T02:02:38;3.97;;;3.67;;
7181;SDS011;3632;42.724;23.298;2022-09-12T02:05:08;4.40;;;4.00;;
7181;SDS011;3632;42.724;23.298;2022-09-12T02:07:38;6.90;;;4.03;;
7181;SDS011;3632;42.724;23.298;2022-09-12T02:10:09;7.10;;;4.30;;
7181;SDS011;3632;42.724;23.298;2022-09-12T02:12:42;4.73;;;4.20;;
7181;SDS011;3632;42.724;23.298;2022-09-12T02:15:15;4.77;;;4.27;;
7181;SDS011;3632;42.724;23.298;2022-09-12T02:17:48;4.80;;;4.40;;
7181;SDS011;3632;42.724;23.298;2022-09-12T02:20:18;4.67;;;4.27;;
7181;SDS011;3632;42.724;23.298;2022-09-12T02:22:48;5.43;;;4.93;;
7181;SDS011;3632;42.724;23.298;2022-09-12T02:25:19;6.43;;;4.63;;
7181;SDS011;3632;42.724;23.298;2022-09-12T02:27:47;5.10;;;4.57;;
7181;SDS011;3632;42.724;23.298;2022-09-12T02:30:16;4.33;;;4.00;;
7181;SDS011;3632;42.724;23.298;2022-09-12T02:32:45;4.63;;;4.00;;
7181;SDS011;3632;42.724;23.298;2022-09-12T02:35:24;4.40;;;4.00;;
7181;SDS011;3632;42.724;23.298;2022-09-12T02:38:03;5.97;;;3.97;;
7181;SDS011;3632;42.724;23.298;2022-09-12T02:40:34;7.60;;;4.40;;
7181;SDS011;3632;42.724;23.298;2022-09-12T02:43:03;4.50;;;4.10;;
7181;SDS011;3632;42.724;23.298;2022-09-12T02:45:31;4.67;;;4.03;;
7181;SDS011;3632;42.724;23.298;2022-09-12T02:48:01;4.40;;;4.00;;
7181;SDS011;3632;42.724;23.298;2022-09-12T02:50:34;4.23;;;3.93;;
7181;SDS011;3632;42.724;23.298;2022-09-12T02:53:02;4.63;;;4.23;;
7181;SDS011;3632;42.724;23.298;2022-09-12T02:55:30;5.20;;;3.93;;
7181;SDS011;3632;42.724;23.298;2022-09-12T02:57:59;6.53;;;4.10;;
7181;SDS011;3632;42.724;23.298;2022-09-12T03:00:28;4.50;;;4.10;;
7181;SDS011;3632;42.724;23.298;2022-09-12T03:03:08;4.63;;;4.03;;
7181;SDS011;3632;42.724;23.298;2022-09-12T03:05:55;5.37;;;4.43;;
7181;SDS011;3632;42.724;23.298;2022-09-12T03:11:21;4.27;;;3.87;;
7181;SDS011;3632;42.724;23.298;2022-09-12T03:13:59;4.73;;;4.33;;
7181;SDS011;3632;42.724;23.298;2022-09-12T03:16:39;4.93;;;4.43;;
7181;SDS011;3632;42.724;23.298;2022-09-12T03:19:18;5.10;;;4.43;;
7181;SDS011;3632;42.724;23.298;2022-09-12T03:21:53;5.73;;;5.10;;
7181;SDS011;3632;42.724;23.298;2022-09-12T03:24:28;5.23;;;4.83;;
7181;SDS011;3632;42.724;23.298;2022-09-12T03:26:59;5.80;;;5.03;;
7181;SDS011;3632;42.724;23.298;2022-09-12T03:29:33;5.70;;;5.17;;
7181;SDS011;3632;42.724;23.298;2022-09-12T03:32:02;5.87;;;5.37;;
7181;SDS011;3632;42.724;23.298;2022-09-12T03:34:31;6.27;;;5.70;;
7181;SDS011;3632;42.724;23.298;2022-09-12T03:36:58;6.33;;;5.70;;
7181;SDS011;3632;42.724;23.298;2022-09-12T03:39:25;6.60;;;6.03;;
7181;SDS011;3632;42.724;23.298;2022-09-12T03:41:52;6.70;;;6.10;;
7181;SDS011;3632;42.724;23.298;2022-09-12T03:44:20;5.90;;;5.40;;
7181;SDS011;3632;42.724;23.298;2022-09-12T03:46:47;6.67;;;6.03;;
7181;SDS011;3632;42.724;23.298;2022-09-12T03:49:14;7.70;;;6.10;;
7181;SDS011;3632;42.724;23.298;2022-09-12T03:51:43;6.30;;;5.70;;
7181;SDS011;3632;42.724;23.298;2022-09-12T03:54:10;6.60;;;6.03;;
7181;SDS011;3632;42.724;23.298;2022-09-12T03:56:37;6.53;;;6.03;;
7181;SDS011;3632;42.724;23.298;2022-09-12T03:59:05;6.40;;;5.90;;
7181;SDS011;3632;42.724;23.298;2022-09-12T04:01:33;6.80;;;6.17;;
7181;SDS011;3632;42.724;23.298;2022-09-12T04:04:01;6.90;;;6.30;;
7181;SDS011;3632;42.724;23.298;2022-09-12T04:06:28;6.67;;;6.07;;
7181;SDS011;3632;42.724;23.298;2022-09-12T04:08:57;5.97;;;5.43;;
7181;SDS011;3632;42.724;23.298;2022-09-12T04:11:24;6.37;;;5.87;;
7181;SDS011;3632;42.724;23.298;2022-09-12T04:13:51;6.60;;;6.00;;
7181;SDS011;3632;42.724;23.298;2022-09-12T04:16:18;6.43;;;5.83;;
7181;SDS011;3632;42.724;23.298;2022-09-12T04:18:45;6.50;;;5.83;;
7181;SDS011;3632;42.724;23.298;2022-09-12T04:21:13;8.47;;;6.07;;
7181;SDS011;3632;42.724;23.298;2022-09-12T04:23:41;6.30;;;5.70;;
7181;SDS011;3632;42.724;23.298;2022-09-12T04:26:10;6.70;;;6.00;;
7181;SDS011;3632;42.724;23.298;2022-09-12T04:28:38;6.63;;;6.00;;
7181;SDS011;3632;42.724;23.298;2022-09-12T04:31:06;6.57;;;5.83;;
7181;SDS011;3632;42.724;23.298;2022-09-12T04:33:35;6.50;;;6.00;;
7181;SDS011;3632;42.724;23.298;2022-09-12T04:36:03;6.43;;;5.93;;
7181;SDS011;3632;42.724;23.298;2022-09-12T04:38:31;6.50;;;5.90;;
7181;SDS011;3632;42.724;23.298;2022-09-12T04:40:58;6.13;;;5.53;;
7181;SDS011;3632;42.724;23.298;2022-09-12T04:43:27;6.27;;;5.67;;
7181;SDS011;3632;42.724;23.298;2022-09-12T04:45:54;6.67;;;6.07;;
7181;SDS011;3632;42.724;23.298;2022-09-12T04:48:21;6.53;;;5.50;;
7181;SDS011;3632;42.724;23.298;2022-09-12T04:50:48;6.00;;;5.43;;
7181;SDS011;3632;42.724;23.298;2022-09-12T04:53:15;6.47;;;5.40;;
7181;SDS011;3632;42.724;23.298;2022-09-12T04:55:42;6.40;;;5.77;;
7181;SDS011;3632;42.724;23.298;2022-09-12T04:58:09;6.80;;;6.10;;
7181;SDS011;3632;42.724;23.298;2022-09-12T05:00:37;6.70;;;6.10;;
7181;SDS011;3632;42.724;23.298;2022-09-12T05:03:04;6.83;;;6.23;;
7181;SDS011;3632;42.724;23.298;2022-09-12T05:05:31;6.23;;;5.73;;
7181;SDS011;3632;42.724;23.298;2022-09-12T05:07:58;6.60;;;5.63;;
7181;SDS011;3632;42.724;23.298;2022-09-12T05:10:25;6.00;;;5.47;;
7181;SDS011;3632;42.724;23.298;2022-09-12T05:12:53;6.50;;;5.90;;
7181;SDS011;3632;42.724;23.298;2022-09-12T05:15:19;6.37;;;5.87;;
7181;SDS011;3632;42.724;23.298;2022-09-12T05:17:48;6.73;;;6.03;;
7181;SDS011;3632;42.724;23.298;2022-09-12T05:20:15;6.77;;;6.10;;
7181;SDS011;3632;42.724;23.298;2022-09-12T05:22:42;6.93;;;6.33;;
7181;SDS011;3632;42.724;23.298;2022-09-12T05:25:09;10.73;;;7.00;;
7181;SDS011;3632;42.724;23.298;2022-09-12T05:27:36;8.00;;;6.53;;
7181;SDS011;3632;42.724;23.298;2022-09-12T05:30:04;10.07;;;6.40;;
7181;SDS011;3632;42.724;23.298;2022-09-12T05:32:32;8.50;;;7.00;;
7181;SDS011;3632;42.724;23.298;2022-09-12T05:35:01;8.37;;;6.43;;
7181;SDS011;3632;42.724;23.298;2022-09-12T05:37:28;8.20;;;7.53;;
7181;SDS011;3632;42.724;23.298;2022-09-12T05:39:55;6.90;;;6.30;;
7181;SDS011;3632;42.724;23.298;2022-09-12T05:42:23;7.17;;;6.47;;
7181;SDS011;3632;42.724;23.298;2022-09-12T05:44:51;6.70;;;6.20;;
7181;SDS011;3632;42.724;23.298;2022-09-12T05:47:18;7.23;;;6.53;;
7181;SDS011;3632;42.724;23.298;2022-09-12T05:49:45;8.90;;;7.53;;
7181;SDS011;3632;42.724;23.298;2022-09-12T05:52:14;6.60;;;6.00;;
7181;SDS011;3632;42.724;23.298;2022-09-12T05:54:41;6.63;;;6.03;;
7181;SDS011;3632;42.724;23.298;2022-09-12T05:57:08;7.10;;;5.97;;
7181;SDS011;3632;42.724;23.298;2022-09-12T05:59:35;8.10;;;5.80;;
7181;SDS011;3632;42.724;23.298;2022-09-12T06:02:02;5.87;;;5.37;;
7181;SDS011;3632;42.724;23.298;2022-09-12T06:04:29;6.37;;;5.77;;
7181;SDS011;3632;42.724;23.298;2022-09-12T06:06:56;5.30;;;4.87;;
7181;SDS011;3632;42.724;23.298;2022-09-12T06:09:24;5.60;;;5.10;;
7181;SDS011;3632;42.724;23.298;2022-09-12T06:11:52;5.77;;;4.70;;
7181;SDS011;3632;42.724;23.298;2022-09-12T06:14:20;7.77;;;5.87;;
7181;SDS011;3632;42.724;23.298;2022-09-12T06:16:47;5.57;;;5.07;;
7181;SDS011;3632;42.724;23.298;2022-09-12T06:19:15;6.47;;;5.30;;
7181;SDS011;3632;42.724;23.298;2022-09-12T06:21:43;5.40;;;4.93;;
7181;SDS011;3632;42.724;23.298;2022-09-12T06:24:11;6.60;;;5.00;;
7181;SDS011;3632;42.724;23.298;2022-09-12T06:26:40;6.90;;;5.30;;
7181;SDS011;3632;42.724;23.298;2022-09-12T06:29:08;5.70;;;5.20;;
7181;SDS011;3632;42.724;23.298;2022-09-12T06:31:37;5.80;;;5.20;;
7181;SDS011;3632;42.724;23.298;2022-09-12T06:34:06;5.83;;;5.33;;
7181;SDS011;3632;42.724;23.298;2022-09-12T06:36:36;8.27;;;5.77;;
7181;SDS011;3632;42.724;23.298;2022-09-12T06:39:05;6.63;;;5.57;;
7181;SDS011;3632;42.724;23.298;2022-09-12T06:41:33;5.80;;;5.27;;
7181;SDS011;3632;42.724;23.298;2022-09-12T06:44:01;6.00;;;5.47;;
7181;SDS011;3632;42.724;23.298;2022-09-12T06:46:29;6.23;;;5.63;;
7181;SDS011;3632;42.724;23.298;2022-09-12T06:48:56;5.43;;;4.93;;
7181;SDS011;3632;42.724;23.298;2022-09-12T06:51:25;5.73;;;5.23;;
7181;SDS011;3632;42.724;23.298;2022-09-12T06:53:53;6.70;;;5.17;;
7181;SDS011;3632;42.724;23.298;2022-09-12T06:56:22;5.93;;;5.20;;
7181;SDS011;3632;42.724;23.298;2022-09-12T06:58:50;5.43;;;4.83;;
7181;SDS011;3632;42.724;23.298;2022-09-12T07:01:20;7.07;;;5.33;;
7181;SDS011;3632;42.724;23.298;2022-09-12T07:03:49;8.40;;;7.60;;
7181;SDS011;3632;42.724;23.298;2022-09-12T07:06:17;6.63;;;5.90;;
7181;SDS011;3632;42.724;23.298;2022-09-12T07:08:44;5.83;;;5.33;;
7181;SDS011;3632;42.724;23.298;2022-09-12T07:11:13;6.37;;;5.77;;
7181;SDS011;3632;42.724;23.298;2022-09-12T07:13:41;6.00;;;5.50;;
7181;SDS011;3632;42.724;23.298;2022-09-12T07:16:09;6.23;;;5.63;;
7181;SDS011;3632;42.724;23.298;2022-09-12T07:18:38;5.37;;;4.60;;
7181;SDS011;3632;42.724;23.298;2022-09-12T07:21:05;5.97;;;4.90;;
7181;SDS011;3632;42.724;23.298;2022-09-12T07:23:34;5.53;;;4.90;;
7181;SDS011;3632;42.724;23.298;2022-09-12T07:26:02;5.10;;;4.70;;
7181;SDS011;3632;42.724;23.298;2022-09-12T07:28:30;5.17;;;4.40;;
7181;SDS011;3632;42.724;23.298;2022-09-12T07:31:03;5.00;;;4.60;;
7181;SDS011;3632;42.724;23.298;2022-09-12T07:33:31;5.37;;;4.57;;
7181;SDS011;3632;42.724;23.298;2022-09-12T07:36:01;5.30;;;4.87;;
7181;SDS011;3632;42.724;23.298;2022-09-12T07:38:30;5.17;;;4.77;;
7181;SDS011;3632;42.724;23.298;2022-09-12T07:40:56;5.33;;;4.83;;
7181;SDS011;3632;42.724;23.298;2022-09-12T07:43:25;5.00;;;4.60;;
7181;SDS011;3632;42.724;23.298;2022-09-12T07:45:55;5.17;;;4.77;;
7181;SDS011;3632;42.724;23.298;2022-09-12T07:48:22;4.90;;;4.50;;
7181;SDS011;3632;42.724;23.298;2022-09-12T07:50:56;5.80;;;5.00;;
7181;SDS011;3632;42.724;23.298;2022-09-12T07:53:25;8.90;;;8.00;;
7181;SDS011;3632;42.724;23.298;2022-09-12T07:55:53;5.47;;;4.97;;
7181;SDS011;3632;42.724;23.298;2022-09-12T07:58:20;6.43;;;4.87;;
7181;SDS011;3632;42.724;23.298;2022-09-12T08:00:46;5.17;;;4.67;;
7181;SDS011;3632;42.724;23.298;2022-09-12T08:03:13;5.53;;;5.10;;
7181;SDS011;3632;42.724;23.298;2022-09-12T08:05:40;5.90;;;5.37;;
7181;SDS011;3632;42.724;23.298;2022-09-12T08:08:07;4.87;;;4.47;;
7181;SDS011;3632;42.724;23.298;2022-09-12T08:10:36;5.63;;;4.70;;
7181;SDS011;3632;42.724;23.298;2022-09-12T08:13:03;7.17;;;5.00;;
7181;SDS011;3632;42.724;23.298;2022-09-12T08:15:29;4.80;;;4.30;;
7181;SDS011;3632;42.724;23.298;2022-09-12T08:17:56;5.37;;;4.20;;
7181;SDS011;3632;42.724;23.298;2022-09-12T08:20:23;5.27;;;4.37;;
7181;SDS011;3632;42.724;23.298;2022-09-12T08:22:50;4.13;;;3.83;;
7181;SDS011;3632;42.724;23.298;2022-09-12T08:25:16;4.23;;;3.83;;
7181;SDS011;3632;42.724;23.298;2022-09-12T08:27:45;4.13;;;3.77;;
7181;SDS011;3632;42.724;23.298;2022-09-12T08:30:12;4.80;;;4.30;;
7181;SDS011;3632;42.724;23.298;2022-09-12T08:32:39;5.33;;;4.17;;
7181;SDS011;3632;42.724;23.298;2022-09-12T08:35:06;6.67;;;4.00;;
7181;SDS011;3632;42.724;23.298;2022-09-12T08:37:33;4.30;;;4.00;;
7181;SDS011;3632;42.724;23.298;2022-09-12T08:40:00;4.07;;;3.57;;
7181;SDS011;3632;42.724;23.298;2022-09-12T08:42:32;4.17;;;3.87;;
7181;SDS011;3632;42.724;23.298;2022-09-12T08:45:16;3.93;;;3.63;;
7181;SDS011;3632;42.724;23.298;2022-09-12T08:47:47;5.90;;;3.63;;
7181;SDS011;3632;42.724;23.298;2022-09-12T08:50:17;4.00;;;3.70;;
7181;SDS011;3632;42.724;23.298;2022-09-12T08:52:52;4.00;;;3.70;;
7181;SDS011;3632;42.724;23.298;2022-09-12T08:55:28;3.73;;;3.37;;
7181;SDS011;3632;42.724;23.298;2022-09-12T08:57:58;5.77;;;4.20;;
7181;SDS011;3632;42.724;23.298;2022-09-12T09:00:29;4.33;;;3.93;;
7181;SDS011;3632;42.724;23.298;2022-09-12T09:03:12;4.23;;;3.83;;
7181;SDS011;3632;42.724;23.298;2022-09-12T09:06:02;4.93;;;4.10;;
7181;SDS011;3632;42.724;23.298;2022-09-12T09:08:44;4.23;;;3.90;;
7181;SDS011;3632;42.724;23.298;2022-09-12T09:11:20;5.87;;;4.20;;
7181;SDS011;3632;42.724;23.298;2022-09-12T09:14:01;4.73;;;4.20;;
7181;SDS011;3632;42.724;23.298;2022-09-12T09:17:06;4.27;;;3.97;;
7181;SDS011;3632;42.724;23.298;2022-09-12T09:19:37;5.30;;;4.60;;
7181;SDS011;3632;42.724;23.298;2022-09-12T09:22:10;6.47;;;5.93;;
7181;SDS011;3632;42.724;23.298;2022-09-12T09:24:42;5.97;;;5.37;;
7181;SDS011;3632;42.724;23.298;2022-09-12T09:27:14;6.47;;;4.43;;
7181;SDS011;3632;42.724;23.298;2022-09-12T09:29:54;4.33;;;4.00;;
7181;SDS011;3632;42.724;23.298;2022-09-12T09:32:24;4.73;;;4.20;;
7181;SDS011;3632;42.724;23.298;2022-09-12T09:34:52;5.10;;;4.50;;
7181;SDS011;3632;42.724;23.298;2022-09-12T09:37:20;4.67;;;4.27;;
7181;SDS011;3632;42.724;23.298;2022-09-12T09:39:57;4.20;;;3.80;;
7181;SDS011;3632;42.724;23.298;2022-09-12T09:42:33;4.47;;;3.70;;
7181;SDS011;3632;42.724;23.298;2022-09-12T09:45:10;4.50;;;4.00;;
7181;SDS011;3632;42.724;23.298;2022-09-12T09:47:41;4.63;;;3.90;;
7181;SDS011;3632;42.724;23.298;2022-09-12T09:50:12;4.00;;;3.60;;
7181;SDS011;3632;42.724;23.298;2022-09-12T09:52:42;4.10;;;3.80;;
7181;SDS011;3632;42.724;23.298;2022-09-12T09:55:11;4.00;;;3.70;;
7181;SDS011;3632;42.724;23.298;2022-09-12T09:57:43;4.07;;;3.33;;
7181;SDS011;3632;42.724;23.298;2022-09-12T10:00:21;4.47;;;4.10;;
7181;SDS011;3632;42.724;23.298;2022-09-12T10:03:14;5.13;;;4.70;;
7181;SDS011;3632;42.724;23.298;2022-09-12T10:05:52;4.60;;;3.80;;
7181;SDS011;3632;42.724;23.298;2022-09-12T10:08:22;4.30;;;3.80;;
7181;SDS011;3632;42.724;23.298;2022-09-12T10:10:52;5.23;;;3.40;;
7181;SDS011;3632;42.724;23.298;2022-09-12T10:13:22;3.60;;;3.40;;
7181;SDS011;3632;42.724;23.298;2022-09-12T10:15:55;4.73;;;4.30;;
7181;SDS011;3632;42.724;23.298;2022-09-12T10:18:33;4.30;;;3.90;;
7181;SDS011;3632;42.724;23.298;2022-09-12T10:21:20;4.47;;;4.10;;
7181;SDS011;3632;42.724;23.298;2022-09-12T10:23:57;4.20;;;3.90;;
7181;SDS011;3632;42.724;23.298;2022-09-12T10:26:30;6.63;;;4.70;;
7181;SDS011;3632;42.724;23.298;2022-09-12T10:29:02;4.87;;;4.40;;
7181;SDS011;3632;42.724;23.298;2022-09-12T10:31:39;5.27;;;4.60;;
7181;SDS011;3632;42.724;23.298;2022-09-12T10:34:19;6.03;;;4.43;;
7181;SDS011;3632;42.724;23.298;2022-09-12T10:36:50;5.10;;;4.30;;
7181;SDS011;3632;42.724;23.298;2022-09-12T10:39:20;4.13;;;3.83;;
7181;SDS011;3632;42.724;23.298;2022-09-12T10:41:47;4.90;;;4.00;;
7181;SDS011;3632;42.724;23.298;2022-09-12T10:44:15;6.00;;;4.27;;
7181;SDS011;3632;42.724;23.298;2022-09-12T10:46:43;4.37;;;3.93;;
7181;SDS011;3632;42.724;23.298;2022-09-12T10:49:11;4.60;;;4.20;;
7181;SDS011;3632;42.724;23.298;2022-09-12T10:51:51;6.70;;;4.70;;
7181;SDS011;3632;42.724;23.298;2022-09-12T10:54:20;7.33;;;4.30;;
7181;SDS011;3632;42.724;23.298;2022-09-12T10:56:51;5.73;;;3.90;;
7181;SDS011;3632;42.724;23.298;2022-09-12T10:59:32;3.97;;;3.73;;
7181;SDS011;3632;42.724;23.298;2022-09-12T11:02:13;5.30;;;4.67;;
7181;SDS011;3632;42.724;23.298;2022-09-12T11:04:53;4.40;;;4.10;;
7181;SDS011;3632;42.724;23.298;2022-09-12T11:07:34;4.50;;;4.20;;
7181;SDS011;3632;42.724;23.298;2022-09-12T11:10:16;4.67;;;4.20;;
7181;SDS011;3632;42.724;23.298;2022-09-12T11:12:55;4.43;;;4.00;;
7181;SDS011;3632;42.724;23.298;2022-09-12T11:15:45;5.33;;;4.10;;
7181;SDS011;3632;42.724;23.298;2022-09-12T11:18:33;6.57;;;3.70;;
7181;SDS011;3632;42.724;23.298;2022-09-12T11:21:18;4.73;;;4.10;;
7181;SDS011;3632;42.724;23.298;2022-09-12T11:23:59;4.83;;;4.43;;
7181;SDS011;3632;42.724;23.298;2022-09-12T11:26:49;5.27;;;4.77;;
7181;SDS011;3632;42.724;23.298;2022-09-12T11:29:28;5.10;;;4.00;;
7181;SDS011;3632;42.724;23.298;2022-09-12T11:32:12;4.27;;;3.80;;
7181;SDS011;3632;42.724;23.298;2022-09-12T11:34:59;6.80;;;4.10;;
7181;SDS011;3632;42.724;23.298;2022-09-12T11:37:42;5.03;;;3.90;;
7181;SDS011;3632;42.724;23.298;2022-09-12T11:40:26;5.67;;;3.70;;
7181;SDS011;3632;42.724;23.298;2022-09-12T11:42:58;3.07;;;2.87;;
7181;SDS011;3632;42.724;23.298;2022-09-12T11:45:29;3.40;;;2.97;;
7181;SDS011;3632;42.724;23.298;2022-09-12T11:48:03;6.00;;;3.10;;
7181;SDS011;3632;42.724;23.298;2022-09-12T11:50:33;3.13;;;2.83;;
7181;SDS011;3632;42.724;23.298;2022-09-12T11:53:04;5.10;;;3.00;;
7181;SDS011;3632;42.724;23.298;2022-09-12T11:55:45;3.30;;;3.10;;
7181;SDS011;3632;42.724;23.298;2022-09-12T11:58:18;3.47;;;3.17;;
7181;SDS011;3632;42.724;23.298;2022-09-12T12:00:50;3.93;;;3.47;;
7181;SDS011;3632;42.724;23.298;2022-09-12T12:03:22;5.57;;;4.00;;
7181;SDS011;3632;42.724;23.298;2022-09-12T12:05:56;4.10;;;2.63;;
7181;SDS011;3632;42.724;23.298;2022-09-12T12:08:30;3.53;;;2.33;;
7181;SDS011;3632;42.724;23.298;2022-09-12T12:11:03;2.70;;;2.50;;
7181;SDS011;3632;42.724;23.298;2022-09-12T12:13:32;2.60;;;1.90;;
7181;SDS011;3632;42.724;23.298;2022-09-12T12:16:03;2.37;;;1.67;;
7181;SDS011;3632;42.724;23.298;2022-09-12T12:18:35;2.40;;;2.20;;
7181;SDS011;3632;42.724;23.298;2022-09-12T12:21:19;2.90;;;1.83;;
7181;SDS011;3632;42.724;23.298;2022-09-12T12:24:02;3.40;;;2.10;;
7181;SDS011;3632;42.724;23.298;2022-09-12T12:26:41;2.07;;;1.97;;
7181;SDS011;3632;42.724;23.298;2022-09-12T12:32:22;3.90;;;2.50;;
7181;SDS011;3632;42.724;23.298;2022-09-12T12:38:11;4.93;;;2.80;;
7181;SDS011;3632;42.724;23.298;2022-09-12T12:40:53;2.60;;;2.40;;
7181;SDS011;3632;42.724;23.298;2022-09-12T12:47:13;3.07;;;2.77;;
7181;SDS011;3632;42.724;23.298;2022-09-12T12:49:48;5.23;;;2.70;;
7181;SDS011;3632;42.724;23.298;2022-09-12T12:52:17;2.87;;;2.60;;
7181;SDS011;3632;42.724;23.298;2022-09-12T12:54:48;3.43;;;2.50;;
7181;SDS011;3632;42.724;23.298;2022-09-12T12:57:29;2.60;;;2.40;;
7181;SDS011;3632;42.724;23.298;2022-09-12T13:00:24;4.90;;;2.90;;
7181;SDS011;3632;42.724;23.298;2022-09-12T13:02:55;4.73;;;3.63;;
7181;SDS011;3632;42.724;23.298;2022-09-12T13:05:24;3.03;;;2.80;;
7181;SDS011;3632;42.724;23.298;2022-09-12T13:07:55;3.27;;;2.80;;
7181;SDS011;3632;42.724;23.298;2022-09-12T13:10:26;3.60;;;3.30;;
7181;SDS011;3632;42.724;23.298;2022-09-12T13:12:55;3.50;;;2.90;;
7181;SDS011;3632;42.724;23.298;2022-09-12T13:18:16;3.70;;;3.40;;
7181;SDS011;3632;42.724;23.298;2022-09-12T13:20:50;3.60;;;3.30;;
7181;SDS011;3632;42.724;23.298;2022-09-12T13:23:23;3.30;;;3.00;;
7181;SDS011;3632;42.724;23.298;2022-09-12T13:25:52;3.57;;;3.27;;
7181;SDS011;3632;42.724;23.298;2022-09-12T13:28:21;3.83;;;3.53;;
7181;SDS011;3632;42.724;23.298;2022-09-12T13:30:53;3.60;;;3.33;;
7181;SDS011;3632;42.724;23.298;2022-09-12T13:33:26;4.00;;;3.70;;
7181;SDS011;3632;42.724;23.298;2022-09-12T13:36:08;4.03;;;3.73;;
7181;SDS011;3632;42.724;23.298;2022-09-12T13:38:50;4.17;;;3.77;;
7181;SDS011;3632;42.724;23.298;2022-09-12T13:41:38;4.33;;;4.00;;
7181;SDS011;3632;42.724;23.298;2022-09-12T13:44:18;5.27;;;3.93;;
7181;SDS011;3632;42.724;23.298;2022-09-12T13:46:47;4.13;;;3.73;;
7181;SDS011;3632;42.724;23.298;2022-09-12T13:49:17;4.33;;;3.90;;
7181;SDS011;3632;42.724;23.298;2022-09-12T13:51:51;4.23;;;3.93;;
7181;SDS011;3632;42.724;23.298;2022-09-12T13:54:25;4.47;;;3.97;;
7181;SDS011;3632;42.724;23.298;2022-09-12T13:56:53;7.60;;;4.70;;
7181;SDS011;3632;42.724;23.298;2022-09-12T13:59:22;7.57;;;4.70;;
7181;SDS011;3632;42.724;23.298;2022-09-12T14:01:50;5.47;;;3.77;;
7181;SDS011;3632;42.724;23.298;2022-09-12T14:04:17;3.90;;;3.60;;
7181;SDS011;3632;42.724;23.298;2022-09-12T14:07:08;5.77;;;4.20;;
7181;SDS011;3632;42.724;23.298;2022-09-12T14:09:38;5.83;;;3.43;;
7181;SDS011;3632;42.724;23.298;2022-09-12T14:12:14;7.60;;;3.77;;
7181;SDS011;3632;42.724;23.298;2022-09-12T14:14:59;3.97;;;3.67;;
7181;SDS011;3632;42.724;23.298;2022-09-12T14:17:27;4.47;;;3.80;;
7181;SDS011;3632;42.724;23.298;2022-09-12T14:19:59;10.00;;;4.00;;
7181;SDS011;3632;42.724;23.298;2022-09-12T14:22:27;3.60;;;3.30;;
7181;SDS011;3632;42.724;23.298;2022-09-12T14:24:55;5.20;;;4.13;;
7181;SDS011;3632;42.724;23.298;2022-09-12T14:27:25;3.90;;;3.60;;
7181;SDS011;3632;42.724;23.298;2022-09-12T14:30:02;3.77;;;3.27;;
7181;SDS011;3632;42.724;23.298;2022-09-12T14:32:33;3.37;;;3.07;;
7181;SDS011;3632;42.724;23.298;2022-09-12T14:35:03;3.97;;;3.67;;
7181;SDS011;3632;42.724;23.298;2022-09-12T14:37:47;4.57;;;3.60;;
7181;SDS011;3632;42.724;23.298;2022-09-12T14:40:15;4.10;;;3.70;;
7181;SDS011;3632;42.724;23.298;2022-09-12T14:42:44;3.77;;;3.43;;
7181;SDS011;3632;42.724;23.298;2022-09-12T14:45:16;4.50;;;4.10;;
7181;SDS011;3632;42.724;23.298;2022-09-12T14:47:49;3.87;;;3.57;;
7181;SDS011;3632;42.724;23.298;2022-09-12T14:50:17;4.77;;;4.10;;
7181;SDS011;3632;42.724;23.298;2022-09-12T14:52:52;6.03;;;5.53;;
7181;SDS011;3632;42.724;23.298;2022-09-12T14:55:28;5.10;;;4.70;;
7181;SDS011;3632;42.724;23.298;2022-09-12T14:58:06;7.17;;;4.30;;
7181;SDS011;3632;42.724;23.298;2022-09-12T15:00:52;6.70;;;6.10;;
7181;SDS011;3632;42.724;23.298;2022-09-12T15:03:24;5.90;;;4.73;;
7181;SDS011;3632;42.724;23.298;2022-09-12T15:05:55;4.37;;;3.83;;
7181;SDS011;3632;42.724;23.298;2022-09-12T15:08:23;4.17;;;3.77;;
7181;SDS011;3632;42.724;23.298;2022-09-12T15:10:51;4.23;;;3.93;;
7181;SDS011;3632;42.724;23.298;2022-09-12T15:13:19;5.57;;;4.00;;
7181;SDS011;3632;42.724;23.298;2022-09-12T15:15:48;4.23;;;3.93;;
7181;SDS011;3632;42.724;23.298;2022-09-12T15:18:18;4.27;;;3.87;;
7181;SDS011;3632;42.724;23.298;2022-09-12T15:20:46;6.43;;;3.80;;
7181;SDS011;3632;42.724;23.298;2022-09-12T15:26:02;5.17;;;4.00;;
7181;SDS011;3632;42.724;23.298;2022-09-12T15:28:30;6.13;;;5.53;;
7181;SDS011;3632;42.724;23.298;2022-09-12T15:30:59;5.13;;;4.70;;
7181;SDS011;3632;42.724;23.298;2022-09-12T15:33:32;4.07;;;3.73;;
7181;SDS011;3632;42.724;23.298;2022-09-12T15:35:59;4.60;;;4.20;;
7181;SDS011;3632;42.724;23.298;2022-09-12T15:38:25;4.87;;;4.47;;
7181;SDS011;3632;42.724;23.298;2022-09-12T15:40:52;4.10;;;3.80;;
7181;SDS011;3632;42.724;23.298;2022-09-12T15:43:21;4.63;;;4.20;;
7181;SDS011;3632;42.724;23.298;2022-09-12T15:45:50;4.77;;;4.30;;